ADDS METAR Data INFO
IDs: Format: Raw Decoded Include TAF

Data at: 0801 UTC 23 Jul 2018

KBBG 230755Z AUTO 00000KT 10SM CLR 20/18 A2999 RMK AO2 TSNO
KBBG 230655Z AUTO 00000KT 10SM CLR 20/17 A2999 RMK AO2 TSNO
KBBG 230635Z AUTO 00000KT 10SM CLR 21/18 A2999 RMK AO2 TSNO
KBBG 230615Z AUTO 00000KT 10SM CLR 22/18 A2999 RMK AO2 TSNO
KBBG 230555Z AUTO 00000KT 10SM CLR 22/18 A2999 RMK AO2 TSNO
KBBG 230535Z AUTO 00000KT 10SM CLR 22/17 A2998 RMK AO2 TSNO
KBBG 230515Z AUTO 00000KT 10SM CLR 23/17 A2999 RMK AO2 TSNO
KBBG 230455Z AUTO 00000KT 10SM CLR 22/17 A2999 RMK AO2 TSNO
KBBG 230435Z AUTO 00000KT 10SM CLR 23/17 A2998 RMK AO2 TSNO
KBBG 230415Z AUTO 00000KT 10SM CLR 23/17 A2998 RMK AO2 TSNO
KBBG 230355Z AUTO 01005KT 10SM CLR 24/17 A2998 RMK AO2 TSNO
KBBG 230335Z AUTO 00000KT 10SM CLR 24/17 A2998 RMK AO2 TSNO
KBBG 230315Z AUTO 01006KT 10SM CLR 25/17 A2997 RMK AO2 TSNO
KBBG 230255Z AUTO 36006KT 10SM CLR 25/17 A2996 RMK AO2 TSNO
KBBG 230235Z AUTO 36007KT 10SM CLR 25/17 A2996 RMK AO2 TSNO
KBBG 230215Z AUTO 36006KT 10SM CLR 26/17 A2995 RMK AO2 TSNO
KBBG 230145Z 36008KT 10SM BKN150 27/17 A2994
KBBG 230045Z 33011KT 10SM BKN150 29/16 A2993
KBBG 222345Z 32012KT 10SM BKN150 31/16 A2992
KBBG 222245Z 33011KT 10SM BKN150 30/16 A2992
KBBG 222145Z 28005KT 10SM BKN150 31/16 A2993
KBBG 222045Z 30006KT 10SM BKN150 31/16 A2994
KBBG 221945Z 31008KT 10SM BKN150 30/17 A2995
KBBG 221845Z 30008KT 10SM FEW050 BKN150 30/16 A2996
KBBG 221748Z 33010KT 10SM FEW050 SCT250 29/17 A2997
KBBG 221650Z 36008KT 10SM FEW050 SCT250 28/18 A3000
KBBG 221547Z 35005KT 10SM FEW050 SCT250 27/18 A3001
KBBG 221448Z 02005KT 10SM SCT250 26/19 A3000
KBBG 221350Z 03005KT 10SM BKN250 24/19 A3001
KBBG 221252Z 00000KT 10SM BKN250 22/19 A3001
KBBG 221154Z 00000KT 10SM FEW250 19/19 A3001
KBBG 221115Z AUTO 00000KT 10SM CLR 19/18 A2999 RMK AO2 TSNO
KBBG 221055Z AUTO 00000KT 10SM CLR 20/19 A2998 RMK AO2 TSNO
KBBG 221035Z AUTO 27003KT 10SM CLR 20/19 A2997 RMK AO2 TSNO
KBBG 221015Z AUTO 00000KT 10SM CLR 19/18 A2997 RMK AO2 TSNO
KBBG 220955Z AUTO 00000KT 10SM CLR 19/18 A2997 RMK AO2 TSNO
KBBG 220935Z AUTO 00000KT 10SM CLR 19/18 A2996 RMK AO2 TSNO
KBBG 220915Z AUTO 00000KT 10SM CLR 19/17 A2997 RMK AO2 TSNO
KBBG 220855Z AUTO 00000KT 10SM CLR 19/17 A2997 RMK AO2 TSNO
KBBG 220815Z AUTO 23003KT 10SM CLR 20/17 A2997 RMK AO2 TSNO
KBBG 220755Z AUTO 00000KT 10SM CLR 20/17 A2997 RMK AO2 TSNO
KBBG 220735Z AUTO 00000KT 10SM CLR 19/17 A2997 RMK AO2 TSNO
KBBG 220715Z AUTO 00000KT 10SM CLR 19/17 A2997 RMK AO2 TSNO
KBBG 220655Z AUTO 00000KT 10SM CLR 20/18 A2997 RMK AO2 TSNO
KBBG 220615Z AUTO 00000KT 10SM CLR 20/18 A2998 RMK AO2 TSNO
KBBG 220555Z AUTO 00000KT 10SM CLR 20/17 A2999 RMK AO2 TSNO
KBBG 220535Z AUTO 00000KT 10SM CLR 21/17 A2999 RMK AO2 TSNO
KBBG 220515Z AUTO 00000KT 10SM CLR 22/17 A2999 RMK AO2 TSNO
KBBG 220455Z AUTO 00000KT 10SM CLR 23/17 A2999 RMK AO2 TSNO
KBBG 220435Z AUTO 00000KT 10SM CLR 23/17 A2999 RMK AO2 TSNO
KBBG 220415Z AUTO 35004KT 10SM CLR 24/17 A2999 RMK AO2 TSNO
KBBG 220315Z AUTO 00000KT 10SM CLR 24/16 A2999 RMK AO2 TSNO
KBBG 220255Z AUTO 00000KT 10SM CLR 25/16 A3000 RMK AO2 TSNO
KBBG 220235Z AUTO 00000KT 10SM CLR 25/15 A2999 RMK AO2 TSNO
KBBG 220215Z AUTO 33007KT 10SM CLR 26/15 A2998 RMK AO2 TSNO
KBBG 220145Z 33005KT 10SM SKC 26/15 A2997
KBBG 220045Z 35007KT 10SM SKC 30/15 A2996
KBBG 212345Z 34009KT 10SM SKC 32/14 A2995
KBBG 212245Z 34010KT 10SM SKC 33/14 A2995
KBBG 212145Z 30007KT 10SM SKC 33/13 A2995
KBBG 212045Z 32008KT 10SM SKC 34/12 A2996